Time;durP1;ratioP1;P1;durP2;ratioP2;P2;SDS_P1;SDS_P2;PMS_P1;PMS_P2;Temp;Humidity;BMP_temperature;BMP_pressure;BME280_temperature;BME280_humidity;BME280_pressure;Samples;Min_cycle;Max_cycle;Signal;HPM_P1;HPM_P2
2020/12/30 00:01:25;;;;;;;6.45;3.40;;;;;;;1.70;83.05;97068.06;5091419;28;20012;-75
2020/12/30 00:03:50;;;;;;;8.40;4.10;;;;;;;1.52;82.97;97041.00;5095940;28;20009;-74
2020/12/30 00:06:17;;;;;;;5.75;3.00;;;;;;;1.64;83.08;97074.13;5094417;28;20044;-76
2020/12/30 00:08:42;;;;;;;9.07;3.47;;;;;;;1.32;83.31;97032.78;5093978;28;20124;-74
2020/12/30 00:11:08;;;;;;;6.00;2.85;;;;;;;1.53;83.51;97078.13;5099115;28;20036;-74
2020/12/30 00:13:33;;;;;;;8.32;3.60;;;;;;;1.45;83.01;97048.09;5099715;28;20028;-73
2020/12/30 00:15:58;;;;;;;5.72;2.88;;;;;;;1.36;83.25;97042.03;5103964;28;20020;-75
2020/12/30 00:18:23;;;;;;;13.02;3.72;;;;;;;1.54;82.34;97042.44;5089002;28;20035;-76
2020/12/30 00:20:49;;;;;;;8.50;3.30;;;;;;;1.56;82.54;97055.59;5098731;28;20028;-76
2020/12/30 00:23:14;;;;;;;7.60;3.65;;;;;;;1.50;82.93;97043.84;5088946;28;20031;-75
2020/12/30 00:25:40;;;;;;;9.85;3.47;;;;;;;1.58;82.33;97056.25;5064132;28;20025;-76
2020/12/30 00:28:05;;;;;;;10.88;4.00;;;;;;;1.53;82.66;97056.78;5053086;28;20036;-77
2020/12/30 00:30:30;;;;;;;7.45;3.35;;;;;;;1.52;83.06;97054.34;5069086;28;20108;-76
2020/12/30 00:32:55;;;;;;;9.85;3.63;;;;;;;1.53;83.16;97067.47;5056545;28;20421;-76
2020/12/30 00:35:21;;;;;;;13.95;3.60;;;;;;;1.49;83.44;97074.19;5066157;28;20667;-76
2020/12/30 00:37:46;;;;;;;6.38;2.97;;;;;;;1.34;83.40;97051.25;5057471;28;20024;-75
2020/12/30 00:40:12;;;;;;;10.18;3.45;;;;;;;1.37;83.76;97062.38;5057426;28;20032;-76
2020/12/30 00:42:39;;;;;;;8.05;3.22;;;;;;;1.44;83.77;97071.28;5055304;28;20027;-76
2020/12/30 00:45:06;;;;;;;5.38;2.63;;;;;;;1.39;84.03;97055.03;5059712;28;20493;-76
2020/12/30 00:47:31;;;;;;;5.32;2.17;;;;;;;1.50;83.61;97075.84;5071892;28;20064;-76
2020/12/30 00:49:56;;;;;;;7.22;2.70;;;;;;;1.44;83.40;97060.59;5064960;28;20028;-75
2020/12/30 00:52:22;;;;;;;7.13;2.88;;;;;;;1.63;83.26;97096.47;5064956;28;20613;-76
2020/12/30 00:54:47;;;;;;;6.57;2.70;;;;;;;1.64;83.24;97089.31;5052565;28;20020;-76
2020/12/30 00:57:12;;;;;;;5.95;2.38;;;;;;;1.60;82.47;97066.69;5061156;28;20082;-77
2020/12/30 00:59:40;;;;;;;5.22;2.53;;;;;;;1.81;82.39;97089.88;5061625;28;20028;-74
2020/12/30 01:02:06;;;;;;;6.45;2.80;;;;;;;1.88;82.77;97109.44;5070386;28;20028;-75
2020/12/30 01:04:32;;;;;;;7.72;3.00;;;;;;;1.93;82.81;97115.03;5058141;28;20028;-75
2020/12/30 01:06:57;;;;;;;5.43;2.85;;;;;;;1.75;82.53;97080.78;5086470;28;20522;-74
2020/12/30 01:09:24;;;;;;;8.25;3.00;;;;;;;1.98;82.55;97115.28;5059528;28;20481;-76
2020/12/30 01:11:50;;;;;;;9.80;2.95;;;;;;;2.00;82.79;97123.09;5067615;28;20039;-75
2020/12/30 01:14:15;;;;;;;7.15;3.30;;;;;;;1.96;82.95;97110.16;5071689;28;20040;-75
2020/12/30 01:16:46;;;;;;;8.10;3.10;;;;;;;1.94;82.68;97104.19;5067836;28;20500;-76
2020/12/30 01:19:12;;;;;;;6.90;3.83;;;;;;;1.96;82.77;97120.81;5062760;28;20075;-76
2020/12/30 01:21:41;;;;;;;8.93;3.60;;;;;;;1.97;82.00;97111.78;5058506;28;20024;-76
2020/12/30 01:24:07;;;;;;;5.60;3.17;;;;;;;1.99;82.53;97130.25;5076823;28;20028;-76
2020/12/30 01:26:32;;;;;;;5.53;3.08;;;;;;;1.94;83.05;97125.50;5072178;28;20032;-76
2020/12/30 01:28:58;;;;;;;12.10;3.25;;;;;;;1.86;83.36;97114.97;5071804;28;20059;-76
2020/12/30 01:31:28;;;;;;;6.13;2.65;;;;;;;1.85;83.33;97110.63;5054547;28;20028;-76
2020/12/30 01:33:53;;;;;;;4.80;2.70;;;;;;;1.99;82.92;97124.91;5051833;28;20020;-76
2020/12/30 01:36:18;;;;;;;4.72;2.50;;;;;;;1.92;83.34;97113.38;5064065;28;20107;-76
2020/12/30 01:38:44;;;;;;;5.28;2.50;;;;;;;2.00;83.51;97115.91;5071414;28;20055;-76
2020/12/30 01:41:09;;;;;;;6.38;2.45;;;;;;;2.06;82.95;97109.81;5058204;28;20029;-77
2020/12/30 01:43:34;;;;;;;5.82;2.40;;;;;;;2.09;82.31;97097.94;5053615;28;20047;-76
2020/12/30 01:45:59;;;;;;;4.18;2.15;;;;;;;2.01;82.47;97096.22;5054758;28;20024;-76
2020/12/30 01:48:25;;;;;;;3.38;1.75;;;;;;;2.11;82.69;97091.41;5065914;28;20028;-76
2020/12/30 01:50:51;;;;;;;4.72;2.40;;;;;;;2.24;82.26;97109.34;5069420;28;20020;-76
2020/12/30 01:53:16;;;;;;;4.55;2.03;;;;;;;2.13;81.68;97093.88;5064864;28;20040;-76
2020/12/30 01:55:42;;;;;;;4.78;2.22;;;;;;;2.32;81.88;97119.06;5060774;28;20027;-77
2020/12/30 01:58:09;;;;;;;6.60;2.25;;;;;;;2.33;81.61;97136.72;5058283;28;20036;-77
2020/12/30 02:00:35;;;;;;;3.70;2.42;;;;;;;2.30;82.24;97126.44;5054922;28;20100;-76
2020/12/30 02:03:03;;;;;;;5.40;2.72;;;;;;;2.23;81.22;97114.88;5072244;28;20078;-75
2020/12/30 02:05:30;;;;;;;6.53;2.72;;;;;;;2.25;81.97;97121.66;5060640;28;20411;-75
2020/12/30 02:07:57;;;;;;;6.47;2.83;;;;;;;2.11;81.96;97106.56;5058858;28;20021;-77
2020/12/30 02:10:23;;;;;;;6.88;2.47;;;;;;;2.42;81.57;97139.06;5061393;28;20039;-76
2020/12/30 02:12:49;;;;;;;6.72;2.30;;;;;;;2.24;81.34;97095.19;5068798;28;20036;-74
2020/12/30 02:15:28;;;;;;;5.95;2.08;;;;;;;2.51;81.28;97145.09;5060910;28;20094;-75
2020/12/30 02:17:55;;;;;;;4.20;1.77;;;;;;;2.49;81.08;97147.16;5079884;28;20023;-75
2020/12/30 02:20:21;;;;;;;5.07;2.25;;;;;;;2.28;82.27;97134.66;5088918;28;20032;-76
2020/12/30 02:22:57;;;;;;;5.30;1.95;;;;;;;2.18;81.78;97123.47;5093102;28;20025;-75
2020/12/30 02:25:23;;;;;;;4.57;2.08;;;;;;;2.17;82.21;97135.16;5079483;28;21954;-75
2020/12/30 02:27:48;;;;;;;2.60;1.63;;;;;;;2.25;81.78;97148.34;5089148;28;20083;-76
2020/12/30 02:30:16;;;;;;;2.92;1.77;;;;;;;2.07;81.90;97121.31;5080398;28;20111;-74
2020/12/30 02:32:41;;;;;;;4.10;1.98;;;;;;;2.22;81.46;97134.59;5064019;28;20037;-74
2020/12/30 02:35:06;;;;;;;4.03;1.77;;;;;;;2.22;81.76;97115.91;5051295;28;20068;-75
2020/12/30 02:37:32;;;;;;;3.35;1.70;;;;;;;2.08;81.80;97104.31;5067309;28;20090;-77
2020/12/30 02:39:57;;;;;;;5.70;1.77;;;;;;;2.31;81.48;97126.25;5060668;28;20135;-76
2020/12/30 02:42:22;;;;;;;5.75;2.03;;;;;;;2.10;81.84;97088.94;5065861;28;20032;-75
2020/12/30 02:44:50;;;;;;;3.72;1.90;;;;;;;2.33;81.60;97137.56;5070094;28;20480;-76
2020/12/30 02:47:16;;;;;;;8.57;2.43;;;;;;;2.26;81.27;97127.84;5072633;28;20378;-76
2020/12/30 02:49:41;;;;;;;4.22;1.98;;;;;;;2.35;81.36;97134.69;5067013;28;20031;-77
2020/12/30 02:52:06;;;;;;;4.75;2.05;;;;;;;2.36;81.93;97147.03;5063507;28;20021;-76
2020/12/30 02:54:31;;;;;;;2.30;1.80;;;;;;;2.14;81.39;97114.19;5071642;28;20055;-76
2020/12/30 02:56:57;;;;;;;2.85;1.67;;;;;;;2.21;81.65;97143.63;5069797;28;20545;-76
2020/12/30 02:59:22;;;;;;;3.75;1.73;;;;;;;2.25;81.87;97161.69;5063542;28;20062;-76
2020/12/30 03:01:47;;;;;;;2.72;1.50;;;;;;;2.15;81.71;97138.03;5071582;28;20021;-76
2020/12/30 03:04:12;;;;;;;3.10;1.73;;;;;;;2.33;81.56;97168.75;5054313;28;20051;-76
2020/12/30 03:06:38;;;;;;;4.20;2.00;;;;;;;2.08;81.77;97149.66;5055353;28;20070;-76
2020/12/30 03:09:03;;;;;;;5.22;1.90;;;;;;;2.17;82.02;97161.81;5061877;28;20033;-76
2020/12/30 03:11:28;;;;;;;4.07;1.90;;;;;;;1.97;82.05;97151.81;5059921;28;20013;-76
2020/12/30 03:13:54;;;;;;;2.88;1.50;;;;;;;2.00;82.32;97171.13;5060084;28;20040;-76
2020/12/30 03:16:19;;;;;;;2.30;1.38;;;;;;;1.93;82.73;97171.03;5064408;28;20048;-76
2020/12/30 03:18:45;;;;;;;4.78;1.88;;;;;;;1.93;82.99;97176.34;5055761;28;20025;-75
2020/12/30 03:21:10;;;;;;;4.55;2.08;;;;;;;1.97;82.82;97185.66;5051317;28;20505;-76
2020/12/30 03:23:35;;;;;;;4.32;1.85;;;;;;;1.86;83.30;97173.63;5051576;28;20398;-76
2020/12/30 03:26:00;;;;;;;3.42;2.10;;;;;;;1.73;83.19;97166.31;5058967;28;20056;-76
2020/12/30 03:28:26;;;;;;;3.45;1.80;;;;;;;1.75;83.64;97180.25;5064338;28;20150;-76
2020/12/30 03:30:51;;;;;;;5.05;2.40;;;;;;;1.60;84.12;97174.16;5057526;28;20108;-77
2020/12/30 03:33:17;;;;;;;3.33;2.08;;;;;;;1.58;84.51;97176.19;5059010;28;20394;-76
2020/12/30 03:35:42;;;;;;;3.75;2.00;;;;;;;1.62;84.37;97189.94;5075154;28;20052;-77
2020/12/30 03:38:07;;;;;;;3.78;1.67;;;;;;;1.63;84.04;97172.97;5063523;28;20075;-77
2020/12/30 03:40:33;;;;;;;2.70;1.70;;;;;;;1.82;84.14;97191.00;5056940;28;20449;-77
2020/12/30 03:42:58;;;;;;;2.78;1.63;;;;;;;1.89;83.70;97167.09;5071393;28;20025;-77
2020/12/30 03:45:23;;;;;;;4.80;1.98;;;;;;;1.90;83.90;97190.06;5065457;28;20020;-77
2020/12/30 03:47:48;;;;;;;2.80;1.60;;;;;;;1.91;84.51;97186.38;5074187;28;20452;-77
2020/12/30 03:50:14;;;;;;;4.28;1.92;;;;;;;1.86;84.53;97192.31;5073060;28;20028;-76
2020/12/30 03:52:39;;;;;;;3.60;1.90;;;;;;;1.59;84.25;97147.69;5055631;28;20051;-77
2020/12/30 03:55:05;;;;;;;3.78;1.60;;;;;;;1.59;84.67;97151.16;5067077;28;20021;-76
2020/12/30 03:57:30;;;;;;;3.47;1.60;;;;;;;1.75;85.14;97182.09;5056829;28;20390;-78
2020/12/30 03:59:55;;;;;;;2.97;1.60;;;;;;;1.73;85.35;97171.66;5069588;28;20049;-76
2020/12/30 04:02:20;;;;;;;5.00;1.70;;;;;;;2.04;84.51;97177.69;5065568;28;20063;-76
2020/12/30 04:04:46;;;;;;;4.15;2.33;;;;;;;2.02;84.28;97166.38;5065620;28;20035;-77
2020/12/30 04:07:11;;;;;;;3.00;1.65;;;;;;;1.85;84.13;97144.47;5064784;28;20067;-77
2020/12/30 04:09:37;;;;;;;5.32;1.92;;;;;;;1.91;84.30;97167.72;5057792;28;20029;-77
2020/12/30 04:12:02;;;;;;;4.57;1.60;;;;;;;1.81;84.36;97149.38;5059598;28;20025;-76
2020/12/30 04:14:28;;;;;;;2.92;1.65;;;;;;;2.00;84.07;97185.25;5074659;28;20028;-76
2020/12/30 04:16:54;;;;;;;3.05;1.38;;;;;;;1.64;84.57;97135.44;5072895;28;20115;-77
2020/12/30 04:19:19;;;;;;;2.80;1.60;;;;;;;1.82;84.72;97185.69;5063498;28;20024;-77
2020/12/30 04:21:45;;;;;;;2.80;1.65;;;;;;;1.55;85.10;97147.25;5053581;28;20390;-77
2020/12/30 04:24:10;;;;;;;4.93;1.85;;;;;;;1.35;85.71;97148.81;5061017;28;20089;-75
2020/12/30 04:26:35;;;;;;;3.33;1.75;;;;;;;1.35;86.68;97170.13;5076016;28;20042;-76
2020/12/30 04:29:00;;;;;;;3.58;1.80;;;;;;;1.00;87.03;97149.41;5068073;28;20031;-76
2020/12/30 04:31:26;;;;;;;3.33;1.77;;;;;;;1.00;87.67;97176.03;5061582;28;20391;-79
2020/12/30 04:33:51;;;;;;;4.20;1.77;;;;;;;0.80;88.14;97158.94;5055720;28;20079;-77
2020/12/30 04:36:16;;;;;;;5.47;2.25;;;;;;;0.89;88.26;97179.13;5068054;28;20025;-76
2020/12/30 04:38:42;;;;;;;4.97;2.85;;;;;;;0.94;88.40;97214.00;5062448;28;20104;-77
2020/12/30 04:41:10;;;;;;;4.13;1.88;;;;;;;0.86;88.70;97203.44;5069674;28;20020;-76
2020/12/30 04:43:37;;;;;;;2.57;1.80;;;;;;;0.80;88.48;97189.03;5074827;28;20054;-77
2020/12/30 04:46:04;;;;;;;4.90;2.50;;;;;;;0.89;88.89;97211.06;5063454;28;20017;-77
2020/12/30 04:48:32;;;;;;;5.60;2.08;;;;;;;0.68;88.76;97200.28;5071921;28;20509;-77
2020/12/30 04:50:57;;;;;;;6.03;2.13;;;;;;;0.58;88.85;97200.56;5070414;28;20025;-75
2020/12/30 04:53:23;;;;;;;4.47;2.13;;;;;;;0.55;89.25;97232.84;5061112;28;20033;-78
2020/12/30 04:55:49;;;;;;;5.00;2.53;;;;;;;0.36;89.90;97229.66;5062919;28;20025;-77
2020/12/30 04:58:16;;;;;;;3.42;2.20;;;;;;;0.24;90.31;97230.22;5070721;28;20082;-77
2020/12/30 05:00:42;;;;;;;4.65;2.15;;;;;;;0.15;90.93;97229.47;5052669;28;20017;-77
2020/12/30 05:03:09;;;;;;;3.08;1.98;;;;;;;0.17;91.04;97233.63;5065113;28;20077;-77
2020/12/30 05:05:37;;;;;;;4.80;2.45;;;;;;;0.19;91.24;97217.50;5073148;28;20485;-76
2020/12/30 05:08:10;;;;;;;5.00;1.88;;;;;;;0.41;91.29;97232.59;5063666;28;20027;-76
2020/12/30 05:10:38;;;;;;;4.00;2.00;;;;;;;0.40;90.91;97241.59;5059837;28;20356;-76
2020/12/30 05:13:04;;;;;;;2.70;1.88;;;;;;;0.26;90.28;97223.75;5070079;28;20028;-73
2020/12/30 05:15:29;;;;;;;5.50;2.50;;;;;;;0.27;90.20;97246.69;5072364;28;20051;-71
2020/12/30 05:18:04;;;;;;;4.25;2.30;;;;;;;0.23;90.38;97248.03;5081403;28;20028;-81
2020/12/30 05:20:38;;;;;;;5.32;2.45;;;;;;;0.14;90.87;97233.97;5075924;28;20013;-82
2020/12/30 05:23:07;;;;;;;5.85;2.47;;;;;;;-0.04;91.18;97244.06;5069950;28;20081;-81
2020/12/30 05:25:43;;;;;;;3.40;2.20;;;;;;;0.15;92.04;97253.41;5057515;28;20036;-81
2020/12/30 05:28:10;;;;;;;3.53;2.20;;;;;;;-0.04;91.08;97238.72;5069816;28;20055;-82
2020/12/30 05:30:37;;;;;;;4.80;2.47;;;;;;;0.01;91.02;97268.28;5060250;28;20038;-80
2020/12/30 05:33:06;;;;;;;4.45;2.22;;;;;;;-0.14;91.59;97259.38;5069114;28;20040;-84
2020/12/30 05:35:32;;;;;;;4.50;2.50;;;;;;;-0.15;91.59;97265.72;5078839;28;20043;-81
2020/12/30 05:37:58;;;;;;;6.35;2.47;;;;;;;-0.18;91.88;97252.75;5075396;28;20024;-81
2020/12/30 05:40:35;;;;;;;4.00;2.42;;;;;;;-0.16;91.77;97256.06;5060507;28;20040;-80
2020/12/30 05:43:15;;;;;;;4.50;2.33;;;;;;;0.27;91.08;97277.78;5065183;28;20020;-79
2020/12/30 05:45:51;;;;;;;6.05;2.47;;;;;;;0.44;90.60;97274.00;5073273;28;20046;-73
2020/12/30 05:48:17;;;;;;;4.63;2.30;;;;;;;0.56;90.14;97277.91;5071561;28;20120;-71
2020/12/30 05:50:52;;;;;;;4.82;2.30;;;;;;;0.49;89.45;97258.31;5054627;28;20036;-72
2020/12/30 05:53:19;;;;;;;4.25;2.50;;;;;;;0.48;89.54;97270.00;5064617;28;20032;-76
2020/12/30 05:55:47;;;;;;;5.38;2.65;;;;;;;0.50;89.44;97285.75;5072924;28;20024;-71
2020/12/30 05:58:15;;;;;;;4.85;2.70;;;;;;;0.21;89.68;97274.00;5071686;28;20028;-71
2020/12/30 06:00:41;;;;;;;5.72;3.35;;;;;;;0.26;90.44;97262.81;5070603;28;20386;-75
2020/12/30 06:03:07;;;;;;;7.20;3.10;;;;;;;0.24;90.43;97264.81;5064896;28;20502;-73
2020/12/30 06:05:32;;;;;;;3.47;2.40;;;;;;;0.33;89.94;97293.03;5067304;28;20020;-72
2020/12/30 06:07:58;;;;;;;5.10;2.40;;;;;;;0.29;90.02;97297.88;5056047;28;20074;-69
2020/12/30 06:10:25;;;;;;;3.08;1.85;;;;;;;0.26;90.21;97313.34;5066543;28;20402;-72
2020/12/30 06:12:52;;;;;;;6.50;2.33;;;;;;;0.17;90.36;97305.41;5067484;28;20502;-76
2020/12/30 06:15:21;;;;;;;3.65;2.20;;;;;;;0.13;90.73;97309.44;5071153;28;20079;-73
2020/12/30 06:17:53;;;;;;;3.58;2.20;;;;;;;-0.02;90.66;97313.84;5070386;28;20025;-73
2020/12/30 06:20:33;;;;;;;5.55;2.28;;;;;;;-0.08;90.87;97314.50;5070293;28;20036;-73
2020/12/30 06:23:01;;;;;;;3.97;2.17;;;;;;;-0.13;91.23;97316.84;5066205;28;20024;-70
2020/12/30 06:25:28;;;;;;;3.38;2.05;;;;;;;-0.07;91.84;97321.50;5060742;28;20108;-70
2020/12/30 06:27:54;;;;;;;5.18;2.30;;;;;;;-0.02;91.68;97301.38;5056498;28;20047;-71
2020/12/30 06:30:20;;;;;;;5.28;2.10;;;;;;;0.32;90.89;97318.81;5066263;28;20028;-70
2020/12/30 06:32:45;;;;;;;6.47;2.50;;;;;;;0.35;89.95;97301.66;5056174;28;20063;-70
2020/12/30 06:35:11;;;;;;;5.18;2.00;;;;;;;0.71;89.08;97325.03;5063946;28;20050;-70
2020/12/30 06:37:37;;;;;;;5.35;2.40;;;;;;;0.78;88.21;97326.81;5063849;28;20024;-70
2020/12/30 06:40:29;;;;;;;4.95;2.33;;;;;;;0.83;87.78;97327.09;5058110;28;20083;-70
2020/12/30 06:43:00;;;;;;;8.55;3.20;;;;;;;0.81;87.83;97331.81;5056029;28;20498;-70
2020/12/30 06:45:44;;;;;;;6.88;2.78;;;;;;;0.88;87.58;97323.91;5059963;28;20082;-70
2020/12/30 06:48:10;;;;;;;5.32;2.65;;;;;;;0.85;87.44;97329.59;5057059;28;20021;-70
2020/12/30 06:50:36;;;;;;;6.47;2.50;;;;;;;0.81;87.58;97341.59;5063124;28;20016;-70
2020/12/30 06:53:31;;;;;;;4.97;2.58;;;;;;;0.78;88.03;97347.28;5059855;28;20051;-70
2020/12/30 06:55:59;;;;;;;5.13;2.50;;;;;;;0.72;88.50;97355.97;5059604;28;20043;-72
2020/12/30 06:58:44;;;;;;;7.45;2.95;;;;;;;0.68;88.48;97360.00;5070787;28;20046;-71
2020/12/30 07:01:12;;;;;;;4.28;2.42;;;;;;;0.67;88.34;97363.66;5068827;28;20071;-72
2020/12/30 07:03:37;;;;;;;6.85;2.67;;;;;;;0.61;87.76;97355.38;5071528;28;20024;-71
2020/12/30 07:06:27;;;;;;;4.28;1.90;;;;;;;0.72;87.87;97370.13;5068973;28;20036;-71
2020/12/30 07:08:54;;;;;;;3.78;2.10;;;;;;;0.68;87.60;97360.00;5059769;28;20036;-73
2020/12/30 07:11:49;;;;;;;5.78;2.10;;;;;;;0.84;87.53;97368.72;5068645;28;20043;-73
2020/12/30 07:14:22;;;;;;;4.03;1.77;;;;;;;0.95;86.97;97371.97;5062453;28;20071;-73
2020/12/30 07:17:04;;;;;;;5.35;2.17;;;;;;;1.05;86.48;97376.03;5064734;28;20067;-71
2020/12/30 07:19:31;;;;;;;3.72;1.95;;;;;;;1.14;86.18;97379.47;5069661;28;20028;-71
2020/12/30 07:22:08;;;;;;;7.95;2.40;;;;;;;1.12;86.37;97373.47;5063795;28;20017;-70
2020/12/30 07:24:38;;;;;;;6.68;2.53;;;;;;;1.07;85.98;97363.38;5068817;28;20033;-70
2020/12/30 07:27:11;;;;;;;5.80;2.05;;;;;;;1.15;85.93;97377.63;5064987;28;20065;-69
2020/12/30 07:29:36;;;;;;;5.07;2.42;;;;;;;1.15;85.78;97382.94;5067650;28;20055;-69
2020/12/30 07:32:03;;;;;;;3.75;2.38;;;;;;;1.10;86.16;97388.81;5069953;28;20056;-69
2020/12/30 07:34:31;;;;;;;4.03;1.90;;;;;;;1.09;85.46;97357.88;5080287;28;20031;-69
2020/12/30 07:36:57;;;;;;;2.95;1.48;;;;;;;1.09;85.49;97374.66;5070986;28;20044;-71
2020/12/30 07:39:27;;;;;;;4.45;2.28;;;;;;;1.15;85.30;97377.63;5066740;28;20032;-70
2020/12/30 07:41:53;;;;;;;3.20;1.80;;;;;;;1.27;85.32;97393.00;5068209;28;20021;-67
2020/12/30 07:44:18;;;;;;;4.18;1.70;;;;;;;1.43;84.62;97402.69;5063822;28;20056;-73
2020/12/30 07:46:44;;;;;;;5.95;1.58;;;;;;;1.47;84.28;97389.84;5070302;28;20028;-68
2020/12/30 07:49:20;;;;;;;5.43;1.60;;;;;;;1.48;84.04;97404.81;5069543;28;20524;-73
2020/12/30 07:51:47;;;;;;;2.85;1.75;;;;;;;1.53;83.75;97402.44;5069334;28;20055;-70
2020/12/30 07:54:14;;;;;;;4.75;1.90;;;;;;;1.59;83.46;97404.38;5060978;28;20505;-70
2020/12/30 07:56:39;;;;;;;3.50;1.50;;;;;;;1.74;83.16;97405.25;5060961;28;20038;-69
2020/12/30 07:59:04;;;;;;;4.75;1.60;;;;;;;1.78;82.78;97407.53;5067246;28;20831;-70
2020/12/30 08:01:30;;;;;;;2.47;1.40;;;;;;;1.97;82.28;97396.34;5069600;28;20067;-66
2020/12/30 08:04:05;;;;;;;4.10;1.80;;;;;;;2.05;81.72;97411.44;5055705;28;20033;-67
2020/12/30 08:06:39;;;;;;;4.10;1.80;;;;;;;2.08;82.02;97406.56;5072526;28;20016;-68
2020/12/30 08:09:05;;;;;;;5.82;1.88;;;;;;;1.91;82.20;97400.59;5074071;28;20024;-69
2020/12/30 08:11:31;;;;;;;2.95;1.67;;;;;;;2.03;82.15;97414.28;5091731;28;20072;-69
2020/12/30 08:14:07;;;;;;;2.65;1.50;;;;;;;2.02;82.08;97449.13;5093661;28;20035;-67
2020/12/30 08:16:33;;;;;;;5.93;1.75;;;;;;;2.12;82.52;97460.38;5079026;28;20087;-69
2020/12/30 08:18:58;;;;;;;3.55;1.70;;;;;;;2.06;82.95;97464.59;5072073;28;20028;-68
2020/12/30 08:21:23;;;;;;;3.28;1.70;;;;;;;2.02;82.07;97449.13;5070905;28;20385;-70
2020/12/30 08:24:03;;;;;;;4.55;1.90;;;;;;;1.92;82.79;97450.22;5071106;28;20115;-75
2020/12/30 08:26:29;;;;;;;4.05;2.17;;;;;;;2.04;83.00;97461.28;5066903;28;20087;-73
2020/12/30 08:28:54;;;;;;;4.10;1.50;;;;;;;2.24;81.53;97456.25;5071685;28;20728;-73
2020/12/30 08:31:22;;;;;;;4.53;1.70;;;;;;;2.26;80.85;97448.88;5071748;28;20051;-73
2020/12/30 08:33:50;;;;;;;6.63;1.58;;;;;;;2.31;81.17;97459.00;5073848;28;20048;-72
2020/12/30 08:36:21;;;;;;;4.93;2.05;;;;;;;2.40;81.37;97466.72;5064772;28;20067;-73
2020/12/30 08:38:51;;;;;;;4.38;1.85;;;;;;;2.36;80.94;97467.31;5057305;28;20370;-71
2020/12/30 08:41:22;;;;;;;5.32;1.90;;;;;;;2.61;80.02;97473.97;5070440;28;20502;-73
2020/12/30 08:43:49;;;;;;;4.05;1.60;;;;;;;2.83;79.72;97469.56;5053354;28;20058;-73
2020/12/30 08:46:24;;;;;;;2.88;1.63;;;;;;;2.96;80.05;97478.72;5053258;28;20036;-74
2020/12/30 08:48:51;;;;;;;2.97;1.45;;;;;;;3.06;78.90;97468.56;5073315;28;20359;-73
2020/12/30 08:51:30;;;;;;;3.20;1.52;;;;;;;3.10;77.70;97485.88;5063793;28;20029;-69
2020/12/30 08:53:56;;;;;;;6.40;1.98;;;;;;;2.90;78.53;97487.50;5053484;28;20463;-70
2020/12/30 08:56:22;;;;;;;8.55;2.58;;;;;;;2.92;78.81;97493.47;5063931;28;20068;-69
2020/12/30 08:58:55;;;;;;;7.03;2.67;;;;;;;3.16;78.26;97493.13;5073223;28;20032;-68
2020/12/30 09:01:22;;;;;;;5.53;2.40;;;;;;;3.41;78.18;97484.78;5071772;28;20111;-70
2020/12/30 09:03:48;;;;;;;7.25;2.75;;;;;;;3.38;77.44;97494.00;5071648;28;20024;-71
2020/12/30 09:06:27;;;;;;;6.53;2.55;;;;;;;3.98;75.09;97483.00;5052718;28;20111;-69
2020/12/30 09:08:53;;;;;;;;;;;;;;;4.38;74.02;97493.00;5055536;28;20032;-70
2020/12/30 09:11:18;;;;;;;6.68;2.47;;;;;;;4.51;73.40;97494.94;5070068;28;22180;-70
2020/12/30 09:13:44;;;;;;;4.55;2.20;;;;;;;4.77;73.12;97498.78;5067710;28;20115;-70
2020/12/30 09:16:10;;;;;;;6.28;1.98;;;;;;;4.83;72.77;97489.94;5061730;28;20464;-70
2020/12/30 09:18:36;;;;;;;4.05;2.13;;;;;;;4.95;71.78;97498.22;5061539;28;20041;-71
2020/12/30 09:21:01;;;;;;;3.88;2.10;;;;;;;4.72;72.72;97499.38;5070507;28;20020;-70
2020/12/30 09:23:27;;;;;;;4.20;2.03;;;;;;;4.60;72.79;97482.19;5070511;28;20058;-71
2020/12/30 09:25:53;;;;;;;3.22;1.98;;;;;;;5.10;71.87;97490.03;5058669;28;20032;-70
2020/12/30 09:28:23;;;;;;;5.22;2.30;;;;;;;5.39;70.57;97502.28;5056392;28;20055;-70
2020/12/30 09:30:50;;;;;;;4.35;2.35;;;;;;;5.61;70.17;97505.66;5072240;28;20024;-72
2020/12/30 09:33:18;;;;;;;4.63;1.83;;;;;;;5.58;69.95;97509.59;5071561;28;20028;-73
2020/12/30 09:35:44;;;;;;;3.05;1.70;;;;;;;5.76;69.65;97517.03;5072543;28;20080;-72
2020/12/30 09:38:16;;;;;;;4.85;1.58;;;;;;;5.59;69.53;97502.34;5071888;28;20032;-71
2020/12/30 09:40:42;;;;;;;3.63;1.45;;;;;;;5.32;70.52;97506.81;5061022;28;20021;-73
2020/12/30 09:43:22;;;;;;;2.53;1.50;;;;;;;5.06;71.09;97497.66;5052145;28;20032;-71
2020/12/30 09:45:49;;;;;;;2.75;1.50;;;;;;;4.98;71.56;97504.03;5054672;28;20525;-72
2020/12/30 09:48:19;;;;;;;3.92;1.92;;;;;;;4.74;72.62;97500.00;5062718;28;20428;-72
2020/12/30 09:50:45;;;;;;;;;;;;;;;4.86;71.64;97504.78;5068724;28;20115;-71
2020/12/30 09:53:11;;;;;;;3.03;1.60;;;;;;;4.66;72.11;97504.69;5071691;28;19974;-71
2020/12/30 09:55:37;;;;;;;4.13;1.90;;;;;;;4.51;74.21;97505.63;5053603;28;20028;-72
2020/12/30 09:58:03;;;;;;;11.15;2.53;;;;;;;4.31;73.58;97502.81;5065574;28;20142;-68
2020/12/30 10:00:29;;;;;;;6.00;2.20;;;;;;;4.23;74.51;97502.16;5070598;28;20478;-72
2020/12/30 10:02:54;;;;;;;7.43;1.70;;;;;;;4.13;74.57;97505.97;5070825;28;20085;-71
2020/12/30 10:05:20;;;;;;;3.85;1.60;;;;;;;4.10;74.82;97509.03;5059004;28;20033;-72
2020/12/30 10:07:45;;;;;;;2.35;1.48;;;;;;;3.94;74.56;97504.81;5064039;28;20102;-69
2020/12/30 10:10:10;;;;;;;2.65;1.30;;;;;;;3.79;75.26;97511.25;5075641;28;20032;-69
2020/12/30 10:12:38;;;;;;;3.65;1.30;;;;;;;3.78;75.73;97514.97;5073793;28;20024;-70
2020/12/30 10:15:07;;;;;;;4.75;1.48;;;;;;;3.78;76.04;97510.44;5064016;28;20028;-71
2020/12/30 10:17:33;;;;;;;2.20;1.20;;;;;;;3.91;75.16;97510.53;5064628;28;20028;-71
2020/12/30 10:19:58;;;;;;;2.95;1.58;;;;;;;3.95;75.51;97519.81;5071074;28;20055;-70
2020/12/30 10:22:24;;;;;;;4.38;1.30;;;;;;;3.93;75.11;97519.22;5061283;28;20115;-70
2020/12/30 10:24:49;;;;;;;8.95;2.90;;;;;;;3.87;75.16;97525.31;5064655;28;20348;-70
2020/12/30 10:27:15;;;;;;;3.58;1.88;;;;;;;3.81;74.95;97530.63;5052867;28;20029;-70
2020/12/30 10:29:41;;;;;;;2.70;1.40;;;;;;;3.79;74.43;97532.66;5060256;28;20105;-72
2020/12/30 10:32:06;;;;;;;5.63;1.80;;;;;;;3.93;74.89;97529.09;5068283;28;20478;-70
2020/12/30 10:34:35;;;;;;;2.58;1.35;;;;;;;3.98;74.48;97542.69;5063519;28;20033;-71
2020/12/30 10:37:01;;;;;;;2.47;1.27;;;;;;;4.03;74.95;97531.41;5058642;28;20475;-72
2020/12/30 10:39:27;;;;;;;5.38;1.60;;;;;;;4.11;74.17;97516.06;5055850;28;20536;-71
2020/12/30 10:41:55;;;;;;;2.63;1.48;;;;;;;4.23;73.93;97534.28;5069721;28;20099;-71
2020/12/30 10:44:22;;;;;;;3.35;1.50;;;;;;;4.22;74.24;97538.81;5083651;28;20135;-74
2020/12/30 10:46:47;;;;;;;4.18;1.67;;;;;;;4.22;74.44;97536.13;5059413;28;20398;-73
2020/12/30 10:49:13;;;;;;;3.60;1.70;;;;;;;4.24;75.01;97534.06;5056715;28;20035;-72
2020/12/30 10:51:38;;;;;;;4.28;1.90;;;;;;;4.20;75.76;97540.03;5067466;28;20474;-72
2020/12/30 10:54:04;;;;;;;3.22;1.70;;;;;;;4.29;73.90;97538.84;5054387;28;20032;-71
2020/12/30 10:56:29;;;;;;;5.95;1.85;;;;;;;4.14;74.06;97530.91;5064897;28;20028;-72
2020/12/30 10:58:55;;;;;;;4.25;1.80;;;;;;;4.29;74.29;97536.97;5069596;28;20024;-68
2020/12/30 11:01:20;;;;;;;2.55;1.30;;;;;;;4.35;73.36;97527.38;5059327;28;20074;-68
2020/12/30 11:03:45;;;;;;;2.28;1.40;;;;;;;4.52;72.79;97527.88;5073161;28;20028;-69
2020/12/30 11:06:10;;;;;;;2.45;1.38;;;;;;;4.50;73.38;97522.72;5055470;28;20032;-68
2020/12/30 11:08:36;;;;;;;4.88;1.85;;;;;;;4.60;73.01;97525.88;5072457;28;20020;-68
2020/12/30 11:11:03;;;;;;;4.22;2.33;;;;;;;4.77;72.29;97525.56;5075005;28;20025;-68
2020/12/30 11:13:29;;;;;;;3.85;1.92;;;;;;;4.84;72.50;97513.84;5074083;28;20032;-68
2020/12/30 11:15:54;;;;;;;4.10;2.10;;;;;;;5.00;72.35;97511.84;5067057;28;20048;-68
2020/12/30 11:18:20;;;;;;;4.97;1.88;;;;;;;5.33;71.34;97535.28;5056421;28;20127;-68
2020/12/30 11:20:45;;;;;;;4.20;1.83;;;;;;;5.19;71.70;97532.56;5072329;28;20449;-68
2020/12/30 11:23:11;;;;;;;4.65;1.65;;;;;;;5.05;70.70;97517.44;5065986;28;20601;-68
2020/12/30 11:25:37;;;;;;;4.47;2.03;;;;;;;5.21;72.22;97532.34;5070242;28;20111;-68
2020/12/30 11:28:03;;;;;;;4.93;2.08;;;;;;;5.16;70.41;97534.81;5066543;28;20041;-68
2020/12/30 11:30:32;;;;;;;5.22;1.80;;;;;;;5.11;71.11;97531.91;5067877;28;20025;-68
2020/12/30 11:32:57;;;;;;;4.70;1.65;;;;;;;5.01;71.60;97534.97;5070822;28;20121;-68
2020/12/30 11:35:24;;;;;;;2.70;1.70;;;;;;;4.80;72.14;97533.22;5069579;28;20777;-68
2020/12/30 11:37:50;;;;;;;3.67;1.65;;;;;;;4.50;72.65;97519.22;5052514;28;20029;-68
2020/12/30 11:40:15;;;;;;;3.42;1.88;;;;;;;4.48;73.70;97532.81;5057296;28;20039;-68
2020/12/30 11:42:40;;;;;;;3.92;2.08;;;;;;;4.36;74.47;97539.72;5057390;28;20094;-68